CheckWX is a tool to help pilots better visualize weather data.  It is not intended as a substitute for an official pre-flight weather briefing.

10:06:30 UTC

KSCK METAR
Stockton Metropolitan Airport
Stockton, California, USA
Current

12 mins ago

KSCK 250955Z AUTO 26004KT 10SM CLR 07/02 A3026 RMK AO2 SLP245 T00720022
Observed
Feb-25 @ 09:55 UTC
Wind
  • 260° at 4 KTS
Visibility
10 SM
Flight Rules
VFR
Cloud Levels
  • Clear skies
Temperature
C / 45°F
Dewpoint
C / 36°F
Humidity
71%
Altimeter
30.26" Hg
Pressure
1024.72 hPa
Previous

1 hour ago

KSCK 250855Z AUTO 26004KT 10SM CLR 08/03 A3025 RMK AO2 SLP241 T00830028 55002
Observed
Feb-25 @ 08:55 UTC
Wind
  • 260° at 4 KTS
Visibility
10 SM
Flight Rules
VFR
Cloud Levels
  • Clear skies
Temperature
C / 46°F
Dewpoint
C / 37°F
Humidity
71%
Altimeter
30.25" Hg
Pressure
1024.42 hPa
Previous

2 hours ago

KSCK 250755Z AUTO 28004KT 10SM CLR 11/04 A3024 RMK AO2 SLP240 T01110039 402330072
Observed
Feb-25 @ 07:55 UTC
Wind
  • 280° at 4 KTS
Visibility
10 SM
Flight Rules
VFR
Cloud Levels
  • Clear skies
Temperature
11°C / 52°F
Dewpoint
C / 39°F
Humidity
62%
Altimeter
30.24" Hg
Pressure
1024.02 hPa